createdAt,value
2018-09-11T00:02:01.181Z,99824.41
2018-09-11T00:04:28.845Z,99829.89
2018-09-11T00:06:56.522Z,99828.73
2018-09-11T00:09:24.244Z,99829.41
2018-09-11T00:11:51.905Z,99826.53
2018-09-11T00:14:19.608Z,99821.98
2018-09-11T00:16:47.312Z,99825.50
2018-09-11T00:19:15.032Z,99827.36
2018-09-11T00:21:42.727Z,99831.30
2018-09-11T00:24:10.451Z,99834.86
2018-09-11T00:26:38.157Z,99833.05
2018-09-11T00:29:05.930Z,99833.42
2018-09-11T00:31:33.837Z,99840.63
2018-09-11T00:34:01.689Z,99845.68
2018-09-11T00:36:29.386Z,99844.63
2018-09-11T00:38:57.091Z,99844.80
2018-09-11T00:41:24.775Z,99835.03
2018-09-11T00:43:52.605Z,99840.84
2018-09-11T00:46:20.320Z,99845.96
2018-09-11T00:48:48.061Z,99842.95
2018-09-11T00:51:15.751Z,99838.17
2018-09-11T00:53:43.453Z,99833.75
2018-09-11T00:56:11.147Z,99840.69
2018-09-11T00:58:38.846Z,99834.80
2018-09-11T01:01:06.598Z,99833.32
2018-09-11T01:03:34.258Z,99841.00
2018-09-11T01:06:01.938Z,99836.63
2018-09-11T01:08:29.682Z,99842.94
2018-09-11T01:10:57.357Z,99843.16
2018-09-11T01:13:25.026Z,99851.58
2018-09-11T01:15:52.743Z,99851.37
2018-09-11T01:18:20.416Z,99850.27
2018-09-11T01:20:48.125Z,99859.37
2018-09-11T01:23:15.830Z,99849.52
2018-09-11T01:25:43.497Z,99852.53
2018-09-11T01:28:11.154Z,99853.41
2018-09-11T01:30:38.949Z,99852.45
2018-09-11T01:33:06.646Z,99854.41
2018-09-11T01:35:34.351Z,99851.57
2018-09-11T01:38:02.080Z,99846.33
2018-09-11T01:40:29.765Z,99845.11
2018-09-11T01:42:57.434Z,99855.64
2018-09-11T01:45:25.159Z,99849.23
2018-09-11T01:47:52.825Z,99857.27
2018-09-11T01:50:20.515Z,99852.53
2018-09-11T01:52:48.217Z,99858.03
2018-09-11T01:55:15.892Z,99852.61
2018-09-11T01:57:43.563Z,99855.30
2018-09-11T02:00:15.785Z,99853.03
2018-09-11T02:02:43.491Z,99857.57
2018-09-11T02:05:11.157Z,99851.22
2018-09-11T02:07:39.122Z,99857.44
2018-09-11T02:10:06.792Z,99847.59
2018-09-11T02:12:34.461Z,99850.38
2018-09-11T02:15:02.311Z,99847.42
2018-09-11T02:17:30.157Z,99844.91
2018-09-11T02:19:57.901Z,99845.96
2018-09-11T02:22:25.624Z,99840.84
2018-09-11T02:24:53.281Z,99838.64
2018-09-11T02:27:20.929Z,99841.86
2018-09-11T02:29:48.636Z,99844.91
2018-09-11T02:32:16.390Z,99839.22
2018-09-11T02:34:44.086Z,99847.22
2018-09-11T02:37:11.902Z,99852.58
2018-09-11T02:39:39.601Z,99852.31
2018-09-11T02:42:07.286Z,99856.27
2018-09-11T02:44:40.533Z,99857.21
2018-09-11T02:47:08.655Z,99849.21
2018-09-11T02:49:36.345Z,99850.75
2018-09-11T02:52:04.201Z,99854.22
2018-09-11T02:54:31.856Z,99859.67
2018-09-11T02:56:59.529Z,99865.50
2018-09-11T02:59:27.232Z,99867.92
2018-09-11T03:01:54.938Z,99872.02
2018-09-11T03:04:22.651Z,99873.02
2018-09-11T03:06:50.358Z,99874.67
2018-09-11T03:09:18.046Z,99875.56
2018-09-11T03:11:45.723Z,99881.35
2018-09-11T03:14:13.445Z,99877.30
2018-09-11T03:16:41.138Z,99880.89
2018-09-11T03:19:08.832Z,99879.41
2018-09-11T03:21:36.526Z,99878.23
2018-09-11T03:24:04.203Z,99878.99
2018-09-11T03:26:31.890Z,99881.22
2018-09-11T03:28:59.594Z,99874.92
2018-09-11T03:31:27.259Z,99876.03
2018-09-11T03:33:55.080Z,99879.42
2018-09-11T03:36:22.785Z,99881.77
2018-09-11T03:38:50.481Z,99885.26
2018-09-11T03:41:18.171Z,99897.77
2018-09-11T03:43:45.873Z,99890.06
2018-09-11T03:46:13.538Z,99894.10
2018-09-11T03:48:41.223Z,99897.02
2018-09-11T03:51:08.943Z,99895.78
2018-09-11T03:53:36.625Z,99899.44
2018-09-11T03:56:04.294Z,99898.41
2018-09-11T03:58:32.044Z,99895.41
2018-09-11T04:00:59.751Z,99901.22
2018-09-11T04:03:27.556Z,99903.48
2018-09-11T04:05:55.270Z,99900.16
2018-09-11T04:08:22.995Z,99907.16
2018-09-11T04:10:50.687Z,99910.98
2018-09-11T04:13:18.430Z,99912.06
2018-09-11T04:15:46.112Z,99910.25
2018-09-11T04:18:14.214Z,99909.27
2018-09-11T04:20:41.919Z,99909.58
2018-09-11T04:23:09.642Z,99918.78
2018-09-11T04:25:37.336Z,99919.20
2018-09-11T04:28:05.087Z,99920.14
2018-09-11T04:30:32.821Z,99924.08
2018-09-11T04:33:00.490Z,99927.44
2018-09-11T04:35:28.219Z,99926.33
2018-09-11T04:37:55.890Z,99927.88
2018-09-11T04:40:23.553Z,99912.87
2018-09-11T04:42:51.278Z,99918.19
2018-09-11T04:45:18.962Z,99923.00
2018-09-11T04:47:46.627Z,99919.06
2018-09-11T04:50:14.355Z,99922.49
2018-09-11T04:52:42.049Z,99925.63
2018-09-11T04:55:09.775Z,99918.87
2018-09-11T04:57:37.571Z,99918.28
2018-09-11T05:00:05.334Z,99935.51
2018-09-11T05:02:33.026Z,99932.09
2018-09-11T05:05:00.754Z,99925.27
2018-09-11T05:07:28.599Z,99919.09
2018-09-11T05:09:56.298Z,99924.74
2018-09-11T05:12:24.010Z,99915.03
2018-09-11T05:14:51.721Z,99911.91
2018-09-11T05:17:19.427Z,99915.08
2018-09-11T05:19:47.150Z,99908.87
2018-09-11T05:22:14.866Z,99913.88
2018-09-11T05:24:42.558Z,99916.62
2018-09-11T05:27:10.294Z,99933.81
2018-09-11T05:29:37.974Z,99943.73
2018-09-11T05:32:05.766Z,99955.45
2018-09-11T05:34:33.474Z,99959.33
2018-09-11T05:37:01.172Z,99966.66
2018-09-11T05:39:28.855Z,99957.06
2018-09-11T05:41:56.649Z,99964.32
2018-09-11T05:44:24.342Z,99960.30
2018-09-11T05:46:52.014Z,99966.95
2018-09-11T05:49:19.727Z,99955.68
2018-09-11T05:51:47.419Z,99952.89
2018-09-11T05:54:15.221Z,99956.45
2018-09-11T05:56:42.982Z,99956.25
2018-09-11T05:59:10.682Z,99956.47
2018-09-11T06:01:38.414Z,99955.02
2018-09-11T06:04:06.230Z,99947.76
2018-09-11T06:06:33.933Z,99950.39
2018-09-11T06:09:01.612Z,99944.34
2018-09-11T06:11:29.327Z,99940.91
2018-09-11T06:13:57.014Z,99935.30
2018-09-11T06:16:25.387Z,99944.02
2018-09-11T06:18:53.085Z,99944.76
2018-09-11T06:21:20.761Z,99943.19
2018-09-11T06:23:48.466Z,99943.06
2018-09-11T06:26:16.163Z,99950.89
2018-09-11T06:28:43.863Z,99948.91
2018-09-11T06:31:11.562Z,99955.66
2018-09-11T06:33:39.251Z,99957.33
2018-09-11T06:36:06.932Z,99950.63
2018-09-11T06:38:34.633Z,99955.87
2018-09-11T06:41:02.486Z,99959.52
2018-09-11T06:43:30.202Z,99960.92
2018-09-11T06:45:58.162Z,99957.20
2018-09-11T06:48:25.929Z,99958.86
2018-09-11T06:50:53.606Z,99961.05
2018-09-11T06:53:22.120Z,99966.58
2018-09-11T06:55:49.891Z,99967.28
2018-09-11T06:58:17.590Z,99965.39
2018-09-11T07:00:45.287Z,99959.73
2018-09-11T07:03:13.011Z,99963.01
2018-09-11T07:05:40.677Z,99970.77
2018-09-11T07:08:08.374Z,99971.53
2018-09-11T07:10:36.104Z,99974.20
2018-09-11T07:13:03.795Z,99966.59
2018-09-11T07:15:31.583Z,99967.28
2018-09-11T07:17:59.333Z,99968.87
2018-09-11T07:20:27.152Z,99970.73
2018-09-11T07:22:54.734Z,99969.80
2018-09-11T07:25:22.446Z,99962.13
2018-09-11T07:27:50.118Z,99954.19
2018-09-11T07:30:17.844Z,99959.14
2018-09-11T07:32:45.521Z,99955.90
2018-09-11T07:35:13.209Z,99948.70
2018-09-11T07:37:40.897Z,99945.98
2018-09-11T07:40:08.699Z,99951.53
2018-09-11T07:42:36.383Z,99942.19
2018-09-11T07:45:04.161Z,99945.91
2018-09-11T07:47:31.880Z,99942.75
2018-09-11T07:49:59.546Z,99943.29
2018-09-11T07:52:27.242Z,99943.67
2018-09-11T07:54:54.978Z,99940.72
2018-09-11T07:57:22.719Z,99930.64
2018-09-11T07:59:50.446Z,99929.09
2018-09-11T08:02:18.186Z,99932.69
2018-09-11T08:04:45.905Z,99929.50
2018-09-11T08:07:13.609Z,99923.47
2018-09-11T08:09:41.404Z,99923.70
2018-09-11T08:12:09.152Z,99927.08
2018-09-11T08:14:36.891Z,99933.21
2018-09-11T08:17:04.744Z,99924.33
2018-09-11T08:19:32.542Z,99924.38
2018-09-11T08:22:00.249Z,99913.42
2018-09-11T08:24:28.032Z,99923.33
2018-09-11T08:26:55.734Z,99915.28
2018-09-11T08:29:23.571Z,99919.73
2018-09-11T08:31:51.280Z,99916.73
2018-09-11T08:34:18.964Z,99914.20
2018-09-11T08:36:46.839Z,99913.98
2018-09-11T08:39:14.695Z,99920.47
2018-09-11T08:41:42.451Z,99917.23
2018-09-11T08:44:10.327Z,99918.84
2018-09-11T08:46:38.241Z,99920.70
2018-09-11T08:49:06.481Z,99912.78
2018-09-11T08:51:34.280Z,99919.37
2018-09-11T08:54:02.206Z,99916.00
2018-09-11T08:56:30.046Z,99909.56
2018-09-11T08:58:57.910Z,99908.06
2018-09-11T09:01:25.745Z,99909.20
2018-09-11T09:03:53.476Z,99908.55
2018-09-11T09:06:21.138Z,99910.81
2018-09-11T09:08:48.902Z,99917.08
2018-09-11T09:11:16.695Z,99920.75
2018-09-11T09:13:44.401Z,99920.00
2018-09-11T09:16:12.223Z,99919.36
2018-09-11T09:18:39.967Z,99911.63
2018-09-11T09:21:07.644Z,99925.47
2018-09-11T09:23:35.341Z,99914.23
2018-09-11T09:26:03.054Z,99903.34
2018-09-11T09:28:30.729Z,99909.89
2018-09-11T09:30:58.450Z,99912.25
2018-09-11T09:33:26.123Z,99906.81
2018-09-11T09:35:53.807Z,99908.30
2018-09-11T09:38:21.505Z,99916.47
2018-09-11T09:40:49.204Z,99903.70
2018-09-11T09:43:16.904Z,99907.57
2018-09-11T09:45:44.615Z,99915.70
2018-09-11T09:48:12.298Z,99898.16
2018-09-11T09:50:40.039Z,99904.02
2018-09-11T09:53:07.765Z,99903.50
2018-09-11T09:55:35.431Z,99900.48
2018-09-11T09:58:08.871Z,99899.50
2018-09-11T10:00:42.060Z,99896.25
2018-09-11T10:03:09.860Z,99891.00
2018-09-11T10:05:37.595Z,99891.09
2018-09-11T10:08:05.582Z,99886.27
2018-09-11T10:10:33.283Z,99893.45
2018-09-11T10:13:00.934Z,99891.88
2018-09-11T10:15:28.602Z,99890.42
2018-09-11T10:17:56.309Z,99884.72
2018-09-11T10:20:24.024Z,99881.77
2018-09-11T10:22:51.737Z,99884.08
2018-09-11T10:25:19.453Z,99877.38
2018-09-11T10:27:47.130Z,99871.98
2018-09-11T10:30:14.830Z,99884.13
2018-09-11T10:32:42.533Z,99879.81
2018-09-11T10:35:10.244Z,99888.52
2018-09-11T10:37:37.936Z,99880.14
2018-09-11T10:40:05.684Z,99884.26
2018-09-11T10:42:33.394Z,99882.46
2018-09-11T10:45:01.139Z,99873.73
2018-09-11T10:47:28.855Z,99879.94
2018-09-11T10:49:56.602Z,99883.09
2018-09-11T10:52:24.321Z,99883.92
2018-09-11T10:54:52.037Z,99881.14
2018-09-11T10:57:19.722Z,99868.08
2018-09-11T10:59:47.395Z,99868.17
2018-09-11T11:02:15.107Z,99867.17
2018-09-11T11:04:42.910Z,99865.20
2018-09-11T11:07:11.499Z,99861.69
2018-09-11T11:09:39.236Z,99856.85
2018-09-11T11:12:06.967Z,99849.70
2018-09-11T11:14:34.719Z,99854.14
2018-09-11T11:17:02.522Z,99848.99
2018-09-11T11:19:30.230Z,99841.24
2018-09-11T11:21:57.914Z,99848.69
2018-09-11T11:24:25.601Z,99842.75
2018-09-11T11:26:53.422Z,99843.53
2018-09-11T11:29:21.087Z,99849.16
2018-09-11T11:31:48.806Z,99848.28
2018-09-11T11:34:16.535Z,99842.14
2018-09-11T11:36:44.315Z,99840.84
2018-09-11T11:39:12.282Z,99836.49
2018-09-11T11:41:40.046Z,99836.22
2018-09-11T11:44:07.896Z,99824.54
2018-09-11T11:46:35.655Z,99825.59
2018-09-11T11:49:03.358Z,99817.97
2018-09-11T11:51:31.038Z,99807.04
2018-09-11T11:53:58.745Z,99812.55
2018-09-11T11:56:26.420Z,99801.98
2018-09-11T11:58:54.085Z,99798.64
2018-09-11T12:01:21.819Z,99815.77
2018-09-11T12:03:49.466Z,99810.34
2018-09-11T12:06:17.154Z,99795.52
2018-09-11T12:08:44.854Z,99797.77
2018-09-11T12:11:12.550Z,99782.76
2018-09-11T12:13:40.262Z,99795.22
2018-09-11T12:16:08.029Z,99796.88
2018-09-11T12:18:35.691Z,99800.88
2018-09-11T12:21:03.392Z,99790.44
2018-09-11T12:23:31.065Z,99795.95
2018-09-11T12:25:58.758Z,99792.38
2018-09-11T12:28:26.480Z,99790.52
2018-09-11T12:30:54.244Z,99784.76
2018-09-11T12:33:21.901Z,99782.72
2018-09-11T12:35:49.609Z,99786.56
2018-09-11T12:38:17.385Z,99781.98
2018-09-11T12:40:45.568Z,99782.34
2018-09-11T12:43:13.286Z,99776.33
2018-09-11T12:45:41.025Z,99786.22
2018-09-11T12:48:09.251Z,99772.03
2018-09-11T12:50:36.493Z,99781.47
2018-09-11T12:53:04.222Z,99779.58
2018-09-11T12:55:31.893Z,99786.23
2018-09-11T12:57:59.562Z,99779.34
2018-09-11T13:00:27.298Z,99784.63
2018-09-11T13:02:54.972Z,99787.58
2018-09-11T13:05:22.669Z,99777.91
2018-09-11T13:07:50.369Z,99785.67
2018-09-11T13:10:18.041Z,99784.50
2018-09-11T13:12:45.752Z,99791.75
2018-09-11T13:15:13.568Z,99781.86
2018-09-11T13:17:41.165Z,99783.03
2018-09-11T13:20:08.889Z,99787.48
2018-09-11T13:22:36.649Z,99791.27
2018-09-11T13:25:04.388Z,99790.41
2018-09-11T13:27:32.149Z,99782.14
2018-09-11T13:29:59.885Z,99787.76
2018-09-11T13:32:27.660Z,99785.63
2018-09-11T13:34:55.342Z,99794.22
2018-09-11T13:37:23.081Z,99787.77
2018-09-11T13:39:50.758Z,99783.94
2018-09-11T13:42:18.448Z,99779.91
2018-09-11T13:44:46.149Z,99780.55
2018-09-11T13:47:13.908Z,99777.06
2018-09-11T13:49:41.586Z,99776.23
2018-09-11T13:52:09.319Z,99772.95
2018-09-11T13:54:37.025Z,99767.39
2018-09-11T13:57:04.730Z,99767.77
2018-09-11T13:59:32.435Z,99772.59
2018-09-11T14:02:00.153Z,99771.94
2018-09-11T14:04:27.893Z,99763.99
2018-09-11T14:06:55.634Z,99762.81
2018-09-11T14:09:23.318Z,99764.37
2018-09-11T14:11:51.071Z,99759.51
2018-09-11T14:14:18.810Z,99762.16
2018-09-11T14:16:46.549Z,99764.98
2018-09-11T14:19:14.269Z,99754.11
2018-09-11T14:21:42.016Z,99756.93
2018-09-11T14:24:09.762Z,99757.49
2018-09-11T14:26:37.472Z,99752.74
2018-09-11T14:29:05.205Z,99748.25
2018-09-11T14:31:32.936Z,99753.47
2018-09-11T14:34:00.741Z,99750.59
2018-09-11T14:36:28.521Z,99748.09
2018-09-11T14:38:56.206Z,99751.04
2018-09-11T14:41:23.906Z,99750.00
2018-09-11T14:43:51.636Z,99746.98
2018-09-11T14:46:19.360Z,99742.87
2018-09-11T14:48:47.042Z,99748.25
2018-09-11T14:51:14.726Z,99734.53
2018-09-11T14:53:42.465Z,99741.16
2018-09-11T14:56:10.174Z,99740.69
2018-09-11T14:58:37.928Z,99735.52
2018-09-11T15:01:05.812Z,99736.28
2018-09-11T15:03:33.540Z,99737.33
2018-09-11T15:06:01.284Z,99729.66
2018-09-11T15:08:28.994Z,99732.53
2018-09-11T15:10:56.725Z,99734.30
2018-09-11T15:13:24.424Z,99732.77
2018-09-11T15:15:52.255Z,99728.78
2018-09-11T15:18:19.985Z,99727.57
2018-09-11T15:20:47.701Z,99729.45
2018-09-11T15:23:15.396Z,99734.09
2018-09-11T15:25:43.089Z,99737.23
2018-09-11T15:28:10.842Z,99746.01
2018-09-11T15:30:38.535Z,99749.77
2018-09-11T15:33:06.739Z,99755.34
2018-09-11T15:35:34.475Z,99751.98
2018-09-11T15:38:02.196Z,99756.05
2018-09-11T15:40:29.902Z,99755.48
2018-09-11T15:42:57.589Z,99756.41
2018-09-11T15:45:25.328Z,99763.82
2018-09-11T15:47:53.009Z,99765.45
2018-09-11T15:50:20.775Z,99769.98
2018-09-11T15:52:48.535Z,99769.50
2018-09-11T15:55:16.254Z,99767.47
2018-09-11T15:57:44.017Z,99763.06
2018-09-11T16:00:11.680Z,99770.52
2018-09-11T16:02:39.386Z,99768.84
2018-09-11T16:05:07.148Z,99772.17
2018-09-11T16:07:34.848Z,99766.09
2018-09-11T16:10:02.570Z,99775.92
2018-09-11T16:12:30.405Z,99780.98
2018-09-11T16:14:58.189Z,99771.81
2018-09-11T16:17:25.878Z,99777.64
2018-09-11T16:19:53.629Z,99774.09
2018-09-11T16:22:21.323Z,99774.09
2018-09-11T16:24:49.025Z,99769.47
2018-09-11T16:27:16.736Z,99775.78
2018-09-11T16:29:44.418Z,99776.86
2018-09-11T16:32:12.134Z,99781.61
2018-09-11T16:34:39.909Z,99788.19
2018-09-11T16:37:07.645Z,99790.73
2018-09-11T16:39:35.367Z,99794.84
2018-09-11T16:42:03.189Z,99806.09
2018-09-11T16:44:30.885Z,99809.27
2018-09-11T16:46:58.642Z,99810.14
2018-09-11T16:49:26.356Z,99819.19
2018-09-11T16:51:54.172Z,99826.04
2018-09-11T16:54:21.863Z,99820.32
2018-09-11T16:56:49.630Z,99828.35
2018-09-11T16:59:17.309Z,99835.52
2018-09-11T17:01:44.973Z,99837.41
2018-09-11T17:04:12.706Z,99833.72
2018-09-11T17:06:40.395Z,99833.23
2018-09-11T17:09:08.853Z,99834.06
2018-09-11T17:11:36.604Z,99833.47
2018-09-11T17:14:04.369Z,99836.81
2018-09-11T17:16:32.087Z,99836.17
2018-09-11T17:18:59.803Z,99834.64
2018-09-11T17:21:27.494Z,99837.69
2018-09-11T17:23:55.225Z,99847.05
2018-09-11T17:26:22.957Z,99849.77
2018-09-11T17:28:51.108Z,99858.63
2018-09-11T17:31:18.827Z,99866.09
2018-09-11T17:33:46.694Z,99865.00
2018-09-11T17:36:14.434Z,99863.36
2018-09-11T17:38:42.190Z,99868.31
2018-09-11T17:41:09.920Z,99867.15
2018-09-11T17:43:37.626Z,99863.60
2018-09-11T17:46:05.338Z,99870.23
2018-09-11T17:48:33.111Z,99869.42
2018-09-11T17:51:00.825Z,99865.27
2018-09-11T17:53:28.577Z,99867.75
2018-09-11T17:55:56.297Z,99866.08
2018-09-11T17:58:24.028Z,99870.20
2018-09-11T18:00:51.768Z,99862.19
2018-09-11T18:03:19.509Z,99867.45
2018-09-11T18:05:47.266Z,99864.69
2018-09-11T18:08:15.033Z,99864.10
2018-09-11T18:10:42.788Z,99864.91
2018-09-11T18:13:10.551Z,99868.78
2018-09-11T18:15:38.301Z,99866.57
2018-09-11T18:18:06.022Z,99864.69
2018-09-11T18:20:33.741Z,99861.39
2018-09-11T18:23:01.395Z,99865.78
2018-09-11T18:25:29.130Z,99873.81
2018-09-11T18:27:56.842Z,99868.83
2018-09-11T18:30:24.622Z,99878.73
2018-09-11T18:32:52.397Z,99880.91
2018-09-11T18:37:56.817Z,99874.61
2018-09-11T18:40:24.523Z,99881.27
2018-09-11T18:42:52.218Z,99882.09
2018-09-11T18:45:20.046Z,99884.00
2018-09-11T18:47:47.750Z,99888.97
2018-09-11T18:50:15.444Z,99884.81
2018-09-11T18:52:43.226Z,99884.81
2018-09-11T18:55:10.958Z,99887.58
2018-09-11T18:57:38.710Z,99896.38
2018-09-11T19:00:06.737Z,99899.98
2018-09-11T19:02:34.546Z,99904.66
2018-09-11T19:05:02.247Z,99913.23
2018-09-11T19:07:30.001Z,99914.30
2018-09-11T19:09:57.670Z,99919.55
2018-09-11T19:12:25.416Z,99930.58
2018-09-11T19:14:53.117Z,99934.17
2018-09-11T19:17:20.839Z,99936.07
2018-09-11T19:19:48.564Z,99934.14
2018-09-11T19:22:16.263Z,99940.52
2018-09-11T19:24:44.255Z,99932.53
2018-09-11T19:27:11.967Z,99941.19
2018-09-11T19:29:39.732Z,99953.47
2018-09-11T19:32:07.433Z,99951.43
2018-09-11T19:34:35.204Z,99955.03
2018-09-11T19:37:02.921Z,99958.08
2018-09-11T19:39:30.621Z,99967.66
2018-09-11T19:41:58.314Z,99968.17
2018-09-11T19:44:26.084Z,99967.50
2018-09-11T19:46:53.737Z,99974.05
2018-09-11T19:49:21.428Z,99978.39
2018-09-11T19:51:49.140Z,99980.40
2018-09-11T19:54:16.830Z,99982.29
2018-09-11T19:56:44.477Z,99980.06
2018-09-11T19:59:12.209Z,99990.62
2018-09-11T20:01:39.892Z,99989.03
2018-09-11T20:04:07.564Z,99991.78
2018-09-11T20:06:35.286Z,99995.91
2018-09-11T20:09:03.495Z,100000.20
2018-09-11T20:11:31.173Z,99996.61
2018-09-11T20:13:58.882Z,99994.64
2018-09-11T20:16:26.877Z,99998.85
2018-09-11T20:18:54.655Z,100002.73
2018-09-11T20:21:22.366Z,99994.43
2018-09-11T20:23:50.075Z,100008.11
2018-09-11T20:26:17.750Z,100007.04
2018-09-11T20:28:45.450Z,100005.34
2018-09-11T20:31:13.474Z,99997.18
2018-09-11T20:33:41.535Z,100005.81
2018-09-11T20:36:09.254Z,100014.89
2018-09-11T20:38:37.007Z,100006.15
2018-09-11T20:41:04.735Z,100012.72
2018-09-11T20:43:32.546Z,100010.44
2018-09-11T20:46:00.215Z,100014.16
2018-09-11T20:48:27.971Z,100015.23
2018-09-11T20:50:55.737Z,100021.31
2018-09-11T20:53:23.424Z,100021.07
2018-09-11T20:55:51.223Z,100020.63
2018-09-11T20:58:18.958Z,100028.00
2018-09-11T21:00:46.610Z,100022.80
2018-09-11T21:03:14.300Z,100016.83
2018-09-11T21:05:42.037Z,100016.25
2018-09-11T21:10:36.789Z,100028.20
2018-09-11T21:13:04.593Z,100027.16
2018-09-11T21:15:32.334Z,100019.33
2018-09-11T21:18:00.126Z,100021.01
2018-09-11T21:20:27.909Z,100024.77
2018-09-11T21:22:55.732Z,100020.17
2018-09-11T21:25:23.475Z,100025.70
2018-09-11T21:27:51.293Z,100024.06
2018-09-11T21:30:19.050Z,100026.53
2018-09-11T21:32:46.764Z,100029.77
2018-09-11T21:35:14.500Z,100030.02
2018-09-11T21:37:42.191Z,100038.56
2018-09-11T21:40:09.904Z,100035.61
2018-09-11T21:42:37.637Z,100041.39
2018-09-11T21:45:05.423Z,100040.81
2018-09-11T21:47:33.126Z,100044.98
2018-09-11T21:50:00.900Z,100046.93
2018-09-11T21:52:28.582Z,100052.82
2018-09-11T21:54:56.278Z,100055.05
2018-09-11T21:57:24.071Z,100053.35
2018-09-11T21:59:51.788Z,100045.17
2018-09-11T22:02:19.497Z,100045.53
2018-09-11T22:04:47.231Z,100041.33
2018-09-11T22:07:14.927Z,100047.73
2018-09-11T22:09:42.596Z,100048.62
2018-09-11T22:12:10.345Z,100040.08
2018-09-11T22:14:38.034Z,100044.85
2018-09-11T22:17:06.154Z,100046.45
2018-09-11T22:19:33.858Z,100052.37
2018-09-11T22:22:01.568Z,100050.28
2018-09-11T22:24:29.262Z,100047.61
2018-09-11T22:26:56.980Z,100052.19
2018-09-11T22:29:24.646Z,100052.11
2018-09-11T22:31:52.319Z,100050.20
2018-09-11T22:34:20.140Z,100051.53
2018-09-11T22:36:47.827Z,100064.33
2018-09-11T22:39:15.494Z,100068.16
2018-09-11T22:41:43.229Z,100064.48
2018-09-11T22:44:10.897Z,100074.39
2018-09-11T22:46:38.629Z,100080.86
2018-09-11T22:49:06.377Z,100088.00
2018-09-11T22:51:34.045Z,100081.86
2018-09-11T22:54:01.750Z,100081.42
2018-09-11T22:56:29.492Z,100079.32
2018-09-11T22:58:57.153Z,100081.16
2018-09-11T23:01:24.829Z,100084.50
2018-09-11T23:03:52.571Z,100075.68
2018-09-11T23:06:20.382Z,100084.11
2018-09-11T23:08:48.070Z,100087.81
2018-09-11T23:11:15.790Z,100083.83
2018-09-11T23:13:43.467Z,100090.39
2018-09-11T23:16:11.160Z,100086.10
2018-09-11T23:18:38.895Z,100085.20
2018-09-11T23:21:06.585Z,100095.13
2018-09-11T23:23:34.259Z,100104.77
2018-09-11T23:26:01.961Z,100096.60
2018-09-11T23:28:29.653Z,100108.20
2018-09-11T23:30:57.313Z,100101.13
2018-09-11T23:33:25.039Z,100097.02
2018-09-11T23:35:52.733Z,100097.27
2018-09-11T23:38:20.418Z,100100.70
2018-09-11T23:40:48.118Z,100104.98
2018-09-11T23:43:15.839Z,100100.75
2018-09-11T23:45:43.510Z,100105.69
2018-09-11T23:48:11.252Z,100101.70
2018-09-11T23:50:38.924Z,100102.75
2018-09-11T23:53:06.656Z,100099.97
2018-09-11T23:55:34.390Z,100104.13
2018-09-11T23:58:02.067Z,100107.39
